sensor_id;sensor_type;location;lat;lon;timestamp;P1;durP1;ratioP1;P2;durP2;ratioP2
17935;SDS011;9093;52.062;4.508;2023-04-02T00:01:36;8.40;;;3.70;;
17935;SDS011;9093;52.062;4.508;2023-04-02T00:04:18;9.05;;;4.22;;
17935;SDS011;9093;52.062;4.508;2023-04-02T00:10:28;7.97;;;3.78;;
17935;SDS011;9093;52.062;4.508;2023-04-02T00:15:49;8.43;;;3.80;;
17935;SDS011;9093;52.062;4.508;2023-04-02T00:18:37;6.70;;;3.90;;
17935;SDS011;9093;52.062;4.508;2023-04-02T00:21:34;8.23;;;3.67;;
17935;SDS011;9093;52.062;4.508;2023-04-02T00:24:17;7.80;;;2.97;;
17935;SDS011;9093;52.062;4.508;2023-04-02T00:27:00;11.18;;;4.63;;
17935;SDS011;9093;52.062;4.508;2023-04-02T00:29:44;12.25;;;4.85;;
17935;SDS011;9093;52.062;4.508;2023-04-02T00:32:27;17.88;;;4.90;;
17935;SDS011;9093;52.062;4.508;2023-04-02T00:35:11;9.60;;;4.00;;
17935;SDS011;9093;52.062;4.508;2023-04-02T00:37:58;8.73;;;4.03;;
17935;SDS011;9093;52.062;4.508;2023-04-02T00:40:38;8.85;;;3.42;;
17935;SDS011;9093;52.062;4.508;2023-04-02T00:43:18;8.32;;;3.42;;
17935;SDS011;9093;52.062;4.508;2023-04-02T00:46:09;11.25;;;4.18;;
17935;SDS011;9093;52.062;4.508;2023-04-02T00:48:59;7.10;;;3.80;;
17935;SDS011;9093;52.062;4.508;2023-04-02T00:52:06;10.18;;;3.50;;
17935;SDS011;9093;52.062;4.508;2023-04-02T00:57:43;7.60;;;3.63;;
17935;SDS011;9093;52.062;4.508;2023-04-02T01:00:29;8.57;;;3.40;;
17935;SDS011;9093;52.062;4.508;2023-04-02T01:06:05;5.50;;;3.35;;
17935;SDS011;9093;52.062;4.508;2023-04-02T01:15:23;6.68;;;3.30;;
17935;SDS011;9093;52.062;4.508;2023-04-02T01:24:05;5.57;;;3.17;;
17935;SDS011;9093;52.062;4.508;2023-04-02T01:26:57;5.85;;;3.15;;
17935;SDS011;9093;52.062;4.508;2023-04-02T01:29:45;4.65;;;2.60;;
17935;SDS011;9093;52.062;4.508;2023-04-02T01:32:30;6.68;;;3.78;;
17935;SDS011;9093;52.062;4.508;2023-04-02T01:35:10;5.07;;;3.22;;
17935;SDS011;9093;52.062;4.508;2023-04-02T01:37:53;9.02;;;3.47;;
17935;SDS011;9093;52.062;4.508;2023-04-02T01:40:54;4.97;;;2.58;;
17935;SDS011;9093;52.062;4.508;2023-04-02T01:46:33;4.88;;;2.75;;
17935;SDS011;9093;52.062;4.508;2023-04-02T01:49:17;10.20;;;3.70;;
17935;SDS011;9093;52.062;4.508;2023-04-02T01:51:59;6.97;;;3.30;;
17935;SDS011;9093;52.062;4.508;2023-04-02T01:54:39;16.23;;;2.90;;
17935;SDS011;9093;52.062;4.508;2023-04-02T01:57:21;9.48;;;3.03;;
17935;SDS011;9093;52.062;4.508;2023-04-02T02:00:02;9.93;;;4.00;;
17935;SDS011;9093;52.062;4.508;2023-04-02T02:02:49;10.85;;;3.08;;
17935;SDS011;9093;52.062;4.508;2023-04-02T02:05:31;4.63;;;2.87;;
17935;SDS011;9093;52.062;4.508;2023-04-02T02:08:19;5.47;;;3.20;;
17935;SDS011;9093;52.062;4.508;2023-04-02T02:11:14;4.63;;;2.53;;
17935;SDS011;9093;52.062;4.508;2023-04-02T02:13:59;5.78;;;1.92;;
17935;SDS011;9093;52.062;4.508;2023-04-02T02:16:44;6.05;;;2.67;;
17935;SDS011;9093;52.062;4.508;2023-04-02T02:19:27;4.67;;;2.47;;
17935;SDS011;9093;52.062;4.508;2023-04-02T02:25:42;6.38;;;2.90;;
17935;SDS011;9093;52.062;4.508;2023-04-02T02:28:20;5.13;;;3.40;;
17935;SDS011;9093;52.062;4.508;2023-04-02T02:31:11;5.43;;;3.15;;
17935;SDS011;9093;52.062;4.508;2023-04-02T02:33:59;10.15;;;2.90;;
17935;SDS011;9093;52.062;4.508;2023-04-02T02:39:32;6.93;;;2.95;;
17935;SDS011;9093;52.062;4.508;2023-04-02T02:42:22;5.20;;;3.05;;
17935;SDS011;9093;52.062;4.508;2023-04-02T02:45:05;5.53;;;2.88;;
17935;SDS011;9093;52.062;4.508;2023-04-02T02:47:52;4.18;;;2.47;;
17935;SDS011;9093;52.062;4.508;2023-04-02T02:53:18;5.18;;;2.67;;
17935;SDS011;9093;52.062;4.508;2023-04-02T02:56:00;3.35;;;2.15;;
17935;SDS011;9093;52.062;4.508;2023-04-02T02:58:41;7.85;;;3.28;;
17935;SDS011;9093;52.062;4.508;2023-04-02T03:01:22;5.47;;;2.80;;
17935;SDS011;9093;52.062;4.508;2023-04-02T03:04:02;6.90;;;3.28;;
17935;SDS011;9093;52.062;4.508;2023-04-02T03:06:42;5.68;;;3.15;;
17935;SDS011;9093;52.062;4.508;2023-04-02T03:12:28;6.20;;;3.33;;
17935;SDS011;9093;52.062;4.508;2023-04-02T03:18:13;8.55;;;2.90;;
17935;SDS011;9093;52.062;4.508;2023-04-02T03:24:08;7.37;;;2.87;;
17935;SDS011;9093;52.062;4.508;2023-04-02T03:26:56;7.95;;;2.90;;
17935;SDS011;9093;52.062;4.508;2023-04-02T03:29:43;5.32;;;2.75;;
17935;SDS011;9093;52.062;4.508;2023-04-02T03:32:41;4.97;;;3.13;;
17935;SDS011;9093;52.062;4.508;2023-04-02T03:35:37;4.35;;;2.70;;
17935;SDS011;9093;52.062;4.508;2023-04-02T03:38:34;5.63;;;3.05;;
17935;SDS011;9093;52.062;4.508;2023-04-02T03:41:42;7.60;;;3.15;;
17935;SDS011;9093;52.062;4.508;2023-04-02T03:47:15;8.27;;;2.67;;
17935;SDS011;9093;52.062;4.508;2023-04-02T03:52:55;7.72;;;2.60;;
17935;SDS011;9093;52.062;4.508;2023-04-02T03:55:37;4.40;;;2.72;;
17935;SDS011;9093;52.062;4.508;2023-04-02T03:58:26;4.85;;;2.28;;
17935;SDS011;9093;52.062;4.508;2023-04-02T04:04:09;3.95;;;2.65;;
17935;SDS011;9093;52.062;4.508;2023-04-02T04:06:55;4.47;;;2.95;;
17935;SDS011;9093;52.062;4.508;2023-04-02T04:09:37;4.93;;;2.73;;
17935;SDS011;9093;52.062;4.508;2023-04-02T04:12:33;6.18;;;3.22;;
17935;SDS011;9093;52.062;4.508;2023-04-02T04:18:28;5.53;;;3.03;;
17935;SDS011;9093;52.062;4.508;2023-04-02T04:21:26;7.03;;;3.00;;
17935;SDS011;9093;52.062;4.508;2023-04-02T04:24:21;5.85;;;2.72;;
17935;SDS011;9093;52.062;4.508;2023-04-02T04:27:12;11.15;;;3.42;;
17935;SDS011;9093;52.062;4.508;2023-04-02T04:33:13;9.48;;;3.05;;
17935;SDS011;9093;52.062;4.508;2023-04-02T04:36:02;4.40;;;2.72;;
17935;SDS011;9093;52.062;4.508;2023-04-02T04:38:44;5.53;;;3.17;;
17935;SDS011;9093;52.062;4.508;2023-04-02T04:41:35;6.80;;;3.53;;
17935;SDS011;9093;52.062;4.508;2023-04-02T04:44:20;5.82;;;3.28;;
17935;SDS011;9093;52.062;4.508;2023-04-02T04:47:10;4.78;;;2.60;;
17935;SDS011;9093;52.062;4.508;2023-04-02T04:49:59;4.38;;;3.30;;
17935;SDS011;9093;52.062;4.508;2023-04-02T04:52:47;5.07;;;2.33;;
17935;SDS011;9093;52.062;4.508;2023-04-02T04:55:29;9.98;;;2.60;;
17935;SDS011;9093;52.062;4.508;2023-04-02T04:58:17;7.15;;;2.45;;
17935;SDS011;9093;52.062;4.508;2023-04-02T05:01:04;3.60;;;2.55;;
17935;SDS011;9093;52.062;4.508;2023-04-02T05:03:53;7.32;;;2.80;;
17935;SDS011;9093;52.062;4.508;2023-04-02T05:09:42;8.38;;;2.50;;
17935;SDS011;9093;52.062;4.508;2023-04-02T05:12:39;3.75;;;2.20;;
17935;SDS011;9093;52.062;4.508;2023-04-02T05:15:32;4.38;;;2.15;;
17935;SDS011;9093;52.062;4.508;2023-04-02T05:21:26;3.63;;;2.13;;
17935;SDS011;9093;52.062;4.508;2023-04-02T05:24:25;5.40;;;2.22;;
17935;SDS011;9093;52.062;4.508;2023-04-02T05:33:16;5.50;;;2.72;;
17935;SDS011;9093;52.062;4.508;2023-04-02T05:36:06;5.07;;;2.83;;
17935;SDS011;9093;52.062;4.508;2023-04-02T05:38:49;10.65;;;2.95;;
17935;SDS011;9093;52.062;4.508;2023-04-02T05:41:34;4.80;;;2.85;;
17935;SDS011;9093;52.062;4.508;2023-04-02T05:44:25;6.18;;;3.00;;
17935;SDS011;9093;52.062;4.508;2023-04-02T05:47:11;4.45;;;2.45;;
17935;SDS011;9093;52.062;4.508;2023-04-02T05:52:49;5.05;;;2.67;;
17935;SDS011;9093;52.062;4.508;2023-04-02T05:55:43;2.92;;;2.15;;
17935;SDS011;9093;52.062;4.508;2023-04-02T05:58:36;3.13;;;2.05;;
17935;SDS011;9093;52.062;4.508;2023-04-02T06:01:31;7.75;;;3.03;;
17935;SDS011;9093;52.062;4.508;2023-04-02T06:07:10;2.95;;;1.98;;
17935;SDS011;9093;52.062;4.508;2023-04-02T06:10:04;6.20;;;2.95;;
17935;SDS011;9093;52.062;4.508;2023-04-02T06:12:52;10.27;;;3.20;;
17935;SDS011;9093;52.062;4.508;2023-04-02T06:15:39;6.00;;;3.05;;
17935;SDS011;9093;52.062;4.508;2023-04-02T06:18:26;3.47;;;2.05;;
17935;SDS011;9093;52.062;4.508;2023-04-02T06:21:10;7.15;;;2.58;;
17935;SDS011;9093;52.062;4.508;2023-04-02T06:23:56;5.93;;;2.65;;
17935;SDS011;9093;52.062;4.508;2023-04-02T06:26:41;4.07;;;2.05;;
17935;SDS011;9093;52.062;4.508;2023-04-02T06:32:13;3.70;;;1.50;;
17935;SDS011;9093;52.062;4.508;2023-04-02T06:34:53;2.50;;;1.60;;
17935;SDS011;9093;52.062;4.508;2023-04-02T06:37:37;6.40;;;2.17;;
17935;SDS011;9093;52.062;4.508;2023-04-02T06:43:03;4.60;;;2.10;;
17935;SDS011;9093;52.062;4.508;2023-04-02T06:45:53;6.68;;;2.42;;
17935;SDS011;9093;52.062;4.508;2023-04-02T06:48:36;2.15;;;1.73;;
17935;SDS011;9093;52.062;4.508;2023-04-02T06:51:21;3.65;;;2.35;;
17935;SDS011;9093;52.062;4.508;2023-04-02T06:54:04;5.30;;;2.17;;
17935;SDS011;9093;52.062;4.508;2023-04-02T06:56:49;4.22;;;2.13;;
17935;SDS011;9093;52.062;4.508;2023-04-02T06:59:31;2.90;;;2.13;;
17935;SDS011;9093;52.062;4.508;2023-04-02T07:05:11;10.65;;;2.28;;
17935;SDS011;9093;52.062;4.508;2023-04-02T07:07:51;3.80;;;2.10;;
17935;SDS011;9093;52.062;4.508;2023-04-02T07:10:32;3.88;;;2.40;;
17935;SDS011;9093;52.062;4.508;2023-04-02T07:13:17;6.75;;;3.03;;
17935;SDS011;9093;52.062;4.508;2023-04-02T07:15:59;9.55;;;2.63;;
17935;SDS011;9093;52.062;4.508;2023-04-02T07:18:40;3.78;;;2.25;;
17935;SDS011;9093;52.062;4.508;2023-04-02T07:21:21;3.30;;;2.28;;
17935;SDS011;9093;52.062;4.508;2023-04-02T07:24:01;6.35;;;2.53;;
17935;SDS011;9093;52.062;4.508;2023-04-02T07:26:42;4.72;;;2.85;;
17935;SDS011;9093;52.062;4.508;2023-04-02T07:29:22;3.60;;;1.90;;
17935;SDS011;9093;52.062;4.508;2023-04-02T07:32:03;2.50;;;1.85;;
17935;SDS011;9093;52.062;4.508;2023-04-02T07:34:43;7.40;;;2.30;;
17935;SDS011;9093;52.062;4.508;2023-04-02T07:37:23;3.33;;;1.83;;
17935;SDS011;9093;52.062;4.508;2023-04-02T07:40:05;5.25;;;2.05;;
17935;SDS011;9093;52.062;4.508;2023-04-02T07:42:48;4.75;;;2.05;;
17935;SDS011;9093;52.062;4.508;2023-04-02T07:45:28;3.05;;;1.73;;
17935;SDS011;9093;52.062;4.508;2023-04-02T07:48:10;2.10;;;1.65;;
17935;SDS011;9093;52.062;4.508;2023-04-02T07:50:52;2.95;;;1.63;;
17935;SDS011;9093;52.062;4.508;2023-04-02T07:53:34;4.00;;;1.70;;
17935;SDS011;9093;52.062;4.508;2023-04-02T07:56:18;4.80;;;1.48;;
17935;SDS011;9093;52.062;4.508;2023-04-02T07:58:59;5.53;;;1.38;;
17935;SDS011;9093;52.062;4.508;2023-04-02T08:01:39;2.70;;;1.25;;
17935;SDS011;9093;52.062;4.508;2023-04-02T08:04:21;7.03;;;2.08;;
17935;SDS011;9093;52.062;4.508;2023-04-02T08:07:02;2.45;;;1.63;;
17935;SDS011;9093;52.062;4.508;2023-04-02T08:09:42;8.73;;;1.58;;
17935;SDS011;9093;52.062;4.508;2023-04-02T08:12:22;1.90;;;1.52;;
17935;SDS011;9093;52.062;4.508;2023-04-02T08:15:06;3.15;;;1.30;;
17935;SDS011;9093;52.062;4.508;2023-04-02T08:17:46;4.57;;;2.05;;
17935;SDS011;9093;52.062;4.508;2023-04-02T08:20:27;2.15;;;1.42;;
17935;SDS011;9093;52.062;4.508;2023-04-02T08:23:14;3.78;;;1.40;;
17935;SDS011;9093;52.062;4.508;2023-04-02T08:25:56;3.67;;;1.50;;
17935;SDS011;9093;52.062;4.508;2023-04-02T08:28:37;3.50;;;1.70;;
17935;SDS011;9093;52.062;4.508;2023-04-02T08:31:17;2.75;;;2.13;;
17935;SDS011;9093;52.062;4.508;2023-04-02T08:33:57;3.05;;;1.73;;
17935;SDS011;9093;52.062;4.508;2023-04-02T08:36:38;3.95;;;1.75;;
17935;SDS011;9093;52.062;4.508;2023-04-02T08:39:22;3.88;;;1.63;;
17935;SDS011;9093;52.062;4.508;2023-04-02T08:45:10;2.42;;;1.40;;
17935;SDS011;9093;52.062;4.508;2023-04-02T08:47:57;6.80;;;1.98;;
17935;SDS011;9093;52.062;4.508;2023-04-02T08:50:40;3.80;;;1.75;;
17935;SDS011;9093;52.062;4.508;2023-04-02T08:53:35;3.15;;;1.55;;
17935;SDS011;9093;52.062;4.508;2023-04-02T08:59:54;3.60;;;1.95;;
17935;SDS011;9093;52.062;4.508;2023-04-02T09:02:41;2.35;;;1.55;;
17935;SDS011;9093;52.062;4.508;2023-04-02T09:05:27;6.43;;;1.85;;
17935;SDS011;9093;52.062;4.508;2023-04-02T09:08:15;8.38;;;2.05;;
17935;SDS011;9093;52.062;4.508;2023-04-02T09:14:07;2.90;;;1.60;;
17935;SDS011;9093;52.062;4.508;2023-04-02T09:16:59;2.67;;;1.50;;
17935;SDS011;9093;52.062;4.508;2023-04-02T09:19:42;3.42;;;1.88;;
17935;SDS011;9093;52.062;4.508;2023-04-02T09:22:27;6.78;;;1.40;;
17935;SDS011;9093;52.062;4.508;2023-04-02T09:25:33;3.00;;;1.75;;
17935;SDS011;9093;52.062;4.508;2023-04-02T09:28:12;4.60;;;1.80;;
17935;SDS011;9093;52.062;4.508;2023-04-02T09:34:31;4.50;;;1.70;;
17935;SDS011;9093;52.062;4.508;2023-04-02T09:37:16;3.05;;;1.50;;
17935;SDS011;9093;52.062;4.508;2023-04-02T09:43:16;2.60;;;1.60;;
17935;SDS011;9093;52.062;4.508;2023-04-02T09:46:03;2.42;;;1.48;;
17935;SDS011;9093;52.062;4.508;2023-04-02T09:48:48;6.60;;;1.88;;
17935;SDS011;9093;52.062;4.508;2023-04-02T09:51:32;3.50;;;1.52;;
17935;SDS011;9093;52.062;4.508;2023-04-02T09:54:15;2.78;;;1.48;;
17935;SDS011;9093;52.062;4.508;2023-04-02T09:57:02;10.85;;;1.75;;
17935;SDS011;9093;52.062;4.508;2023-04-02T09:59:43;2.65;;;1.58;;
17935;SDS011;9093;52.062;4.508;2023-04-02T10:02:24;3.80;;;1.73;;
17935;SDS011;9093;52.062;4.508;2023-04-02T10:05:18;3.72;;;1.33;;
17935;SDS011;9093;52.062;4.508;2023-04-02T10:08:15;8.35;;;1.98;;
17935;SDS011;9093;52.062;4.508;2023-04-02T10:10:59;3.78;;;1.40;;
17935;SDS011;9093;52.062;4.508;2023-04-02T10:13:45;1.45;;;1.25;;
17935;SDS011;9093;52.062;4.508;2023-04-02T10:16:37;5.40;;;1.63;;
17935;SDS011;9093;52.062;4.508;2023-04-02T10:19:37;2.35;;;1.27;;
17935;SDS011;9093;52.062;4.508;2023-04-02T10:22:21;7.40;;;1.65;;
17935;SDS011;9093;52.062;4.508;2023-04-02T10:25:04;5.55;;;1.60;;
17935;SDS011;9093;52.062;4.508;2023-04-02T10:27:56;3.63;;;1.75;;
17935;SDS011;9093;52.062;4.508;2023-04-02T10:30:53;6.00;;;1.58;;
17935;SDS011;9093;52.062;4.508;2023-04-02T10:33:45;3.75;;;1.50;;
17935;SDS011;9093;52.062;4.508;2023-04-02T10:37:05;3.65;;;1.30;;
17935;SDS011;9093;52.062;4.508;2023-04-02T10:39:50;2.75;;;2.03;;
17935;SDS011;9093;52.062;4.508;2023-04-02T10:42:36;7.00;;;1.90;;
17935;SDS011;9093;52.062;4.508;2023-04-02T10:51:27;4.65;;;2.13;;
17935;SDS011;9093;52.062;4.508;2023-04-02T10:54:20;3.17;;;1.58;;
17935;SDS011;9093;52.062;4.508;2023-04-02T10:57:11;4.75;;;1.30;;
17935;SDS011;9093;52.062;4.508;2023-04-02T10:59:56;1.85;;;1.35;;
17935;SDS011;9093;52.062;4.508;2023-04-02T11:03:12;5.25;;;1.63;;
17935;SDS011;9093;52.062;4.508;2023-04-02T11:05:56;4.65;;;1.77;;
17935;SDS011;9093;52.062;4.508;2023-04-02T11:08:44;2.92;;;1.23;;
17935;SDS011;9093;52.062;4.508;2023-04-02T11:11:34;2.90;;;1.88;;
17935;SDS011;9093;52.062;4.508;2023-04-02T11:14:26;4.15;;;1.20;;
17935;SDS011;9093;52.062;4.508;2023-04-02T11:17:10;1.48;;;1.08;;
17935;SDS011;9093;52.062;4.508;2023-04-02T11:19:53;2.70;;;1.35;;
17935;SDS011;9093;52.062;4.508;2023-04-02T11:22:35;5.90;;;1.42;;
17935;SDS011;9093;52.062;4.508;2023-04-02T11:25:21;3.55;;;1.27;;
17935;SDS011;9093;52.062;4.508;2023-04-02T11:28:12;5.28;;;1.45;;
17935;SDS011;9093;52.062;4.508;2023-04-02T11:31:02;1.67;;;1.25;;
17935;SDS011;9093;52.062;4.508;2023-04-02T11:33:42;8.80;;;1.73;;
17935;SDS011;9093;52.062;4.508;2023-04-02T11:39:53;1.40;;;1.05;;
17935;SDS011;9093;52.062;4.508;2023-04-02T11:42:40;2.22;;;1.27;;
17935;SDS011;9093;52.062;4.508;2023-04-02T11:50:57;5.40;;;0.88;;
17935;SDS011;9093;52.062;4.508;2023-04-02T11:53:40;1.48;;;1.08;;
17935;SDS011;9093;52.062;4.508;2023-04-02T11:56:28;1.95;;;1.08;;
17935;SDS011;9093;52.062;4.508;2023-04-02T11:59:27;1.30;;;0.93;;
17935;SDS011;9093;52.062;4.508;2023-04-02T12:02:34;7.47;;;1.02;;
17935;SDS011;9093;52.062;4.508;2023-04-02T12:05:37;3.75;;;1.05;;
17935;SDS011;9093;52.062;4.508;2023-04-02T12:08:23;3.15;;;1.20;;
17935;SDS011;9093;52.062;4.508;2023-04-02T12:11:31;1.73;;;0.88;;
17935;SDS011;9093;52.062;4.508;2023-04-02T12:20:01;2.30;;;1.35;;
17935;SDS011;9093;52.062;4.508;2023-04-02T12:22:53;1.60;;;1.10;;
17935;SDS011;9093;52.062;4.508;2023-04-02T12:25:35;3.03;;;1.02;;
17935;SDS011;9093;52.062;4.508;2023-04-02T12:28:19;4.18;;;1.30;;
17935;SDS011;9093;52.062;4.508;2023-04-02T12:33:50;3.53;;;1.13;;
17935;SDS011;9093;52.062;4.508;2023-04-02T12:39:15;2.53;;;1.30;;
17935;SDS011;9093;52.062;4.508;2023-04-02T12:41:56;8.57;;;1.20;;
17935;SDS011;9093;52.062;4.508;2023-04-02T12:44:37;3.47;;;1.60;;
17935;SDS011;9093;52.062;4.508;2023-04-02T12:47:27;3.15;;;1.25;;
17935;SDS011;9093;52.062;4.508;2023-04-02T12:50:11;4.50;;;1.00;;
17935;SDS011;9093;52.062;4.508;2023-04-02T12:52:54;1.55;;;1.10;;
17935;SDS011;9093;52.062;4.508;2023-04-02T12:58:36;2.33;;;1.20;;
17935;SDS011;9093;52.062;4.508;2023-04-02T13:01:21;3.33;;;1.10;;
17935;SDS011;9093;52.062;4.508;2023-04-02T13:04:10;2.50;;;1.27;;
17935;SDS011;9093;52.062;4.508;2023-04-02T13:06:51;5.88;;;1.20;;
17935;SDS011;9093;52.062;4.508;2023-04-02T13:09:41;4.97;;;1.50;;
17935;SDS011;9093;52.062;4.508;2023-04-02T13:12:35;2.03;;;1.30;;
17935;SDS011;9093;52.062;4.508;2023-04-02T13:15:21;4.20;;;1.35;;
17935;SDS011;9093;52.062;4.508;2023-04-02T13:21:02;3.87;;;1.30;;
17935;SDS011;9093;52.062;4.508;2023-04-02T13:23:42;1.90;;;1.08;;
17935;SDS011;9093;52.062;4.508;2023-04-02T13:32:00;5.20;;;1.40;;
17935;SDS011;9093;52.062;4.508;2023-04-02T13:34:43;6.30;;;1.42;;
17935;SDS011;9093;52.062;4.508;2023-04-02T13:37:23;3.47;;;1.50;;
17935;SDS011;9093;52.062;4.508;2023-04-02T13:40:04;11.30;;;1.70;;
17935;SDS011;9093;52.062;4.508;2023-04-02T13:42:45;2.13;;;1.08;;
17935;SDS011;9093;52.062;4.508;2023-04-02T13:45:27;3.00;;;0.90;;
17935;SDS011;9093;52.062;4.508;2023-04-02T13:48:18;5.13;;;1.85;;
17935;SDS011;9093;52.062;4.508;2023-04-02T13:50:59;9.40;;;1.10;;
17935;SDS011;9093;52.062;4.508;2023-04-02T13:53:40;4.07;;;0.90;;
17935;SDS011;9093;52.062;4.508;2023-04-02T13:56:21;2.10;;;1.20;;
17935;SDS011;9093;52.062;4.508;2023-04-02T13:59:04;3.08;;;1.35;;
17935;SDS011;9093;52.062;4.508;2023-04-02T14:01:45;1.63;;;1.25;;
17935;SDS011;9093;52.062;4.508;2023-04-02T14:04:27;2.83;;;1.45;;
17935;SDS011;9093;52.062;4.508;2023-04-02T14:13:40;3.42;;;1.30;;
17935;SDS011;9093;52.062;4.508;2023-04-02T14:22:59;2.70;;;1.40;;
17935;SDS011;9093;52.062;4.508;2023-04-02T14:26:00;8.68;;;1.20;;
17935;SDS011;9093;52.062;4.508;2023-04-02T14:31:59;3.70;;;1.23;;
17935;SDS011;9093;52.062;4.508;2023-04-02T14:34:51;2.53;;;1.65;;
17935;SDS011;9093;52.062;4.508;2023-04-02T14:40:54;4.30;;;1.20;;
17935;SDS011;9093;52.062;4.508;2023-04-02T14:43:46;3.30;;;1.38;;
17935;SDS011;9093;52.062;4.508;2023-04-02T14:46:35;1.52;;;1.00;;
17935;SDS011;9093;52.062;4.508;2023-04-02T14:49:30;6.38;;;1.80;;
17935;SDS011;9093;52.062;4.508;2023-04-02T14:52:18;2.70;;;1.00;;
17935;SDS011;9093;52.062;4.508;2023-04-02T14:55:03;2.95;;;0.90;;
17935;SDS011;9093;52.062;4.508;2023-04-02T14:57:50;2.95;;;0.90;;
17935;SDS011;9093;52.062;4.508;2023-04-02T15:03:38;3.38;;;0.95;;
17935;SDS011;9093;52.062;4.508;2023-04-02T15:06:25;1.88;;;0.90;;
17935;SDS011;9093;52.062;4.508;2023-04-02T15:15:21;3.90;;;1.52;;
17935;SDS011;9093;52.062;4.508;2023-04-02T15:18:04;1.67;;;0.98;;
17935;SDS011;9093;52.062;4.508;2023-04-02T15:20:52;4.55;;;1.33;;
17935;SDS011;9093;52.062;4.508;2023-04-02T15:30:06;2.78;;;0.90;;
17935;SDS011;9093;52.062;4.508;2023-04-02T15:32:54;4.65;;;0.90;;
17935;SDS011;9093;52.062;4.508;2023-04-02T15:38:51;1.23;;;0.77;;
17935;SDS011;9093;52.062;4.508;2023-04-02T15:41:51;1.63;;;0.82;;
17935;SDS011;9093;52.062;4.508;2023-04-02T15:44:35;2.63;;;1.20;;
17935;SDS011;9093;52.062;4.508;2023-04-02T15:47:32;2.10;;;0.88;;
17935;SDS011;9093;52.062;4.508;2023-04-02T15:53:43;1.33;;;0.70;;
17935;SDS011;9093;52.062;4.508;2023-04-02T15:56:37;1.88;;;0.80;;
17935;SDS011;9093;52.062;4.508;2023-04-02T16:05:42;3.50;;;1.15;;
17935;SDS011;9093;52.062;4.508;2023-04-02T16:11:43;1.33;;;0.88;;
17935;SDS011;9093;52.062;4.508;2023-04-02T16:17:11;1.90;;;0.75;;
17935;SDS011;9093;52.062;4.508;2023-04-02T16:20:43;3.35;;;1.02;;
17935;SDS011;9093;52.062;4.508;2023-04-02T16:23:13;4.15;;;0.90;;
17935;SDS011;9093;52.062;4.508;2023-04-02T16:28:45;1.27;;;0.80;;
17935;SDS011;9093;52.062;4.508;2023-04-02T16:38:08;3.90;;;1.05;;
17935;SDS011;9093;52.062;4.508;2023-04-02T16:47:27;4.47;;;0.80;;
17935;SDS011;9093;52.062;4.508;2023-04-02T16:50:25;1.15;;;0.73;;
17935;SDS011;9093;52.062;4.508;2023-04-02T17:02:54;1.83;;;1.00;;
17935;SDS011;9093;52.062;4.508;2023-04-02T17:06:43;5.63;;;0.98;;
17935;SDS011;9093;52.062;4.508;2023-04-02T17:14:33;3.43;;;0.87;;
17935;SDS011;9093;52.062;4.508;2023-04-02T17:17:20;2.25;;;0.80;;
17935;SDS011;9093;52.062;4.508;2023-04-02T17:20:01;4.20;;;0.85;;
17935;SDS011;9093;52.062;4.508;2023-04-02T17:22:46;1.02;;;0.70;;
17935;SDS011;9093;52.062;4.508;2023-04-02T17:25:29;2.20;;;0.80;;
17935;SDS011;9093;52.062;4.508;2023-04-02T17:28:15;1.60;;;0.80;;
17935;SDS011;9093;52.062;4.508;2023-04-02T17:31:10;1.65;;;0.70;;
17935;SDS011;9093;52.062;4.508;2023-04-02T17:33:56;1.80;;;1.00;;
17935;SDS011;9093;52.062;4.508;2023-04-02T17:36:49;3.30;;;1.00;;
17935;SDS011;9093;52.062;4.508;2023-04-02T17:40:00;2.25;;;1.20;;
17935;SDS011;9093;52.062;4.508;2023-04-02T17:42:46;1.83;;;0.88;;
17935;SDS011;9093;52.062;4.508;2023-04-02T17:45:42;6.95;;;0.98;;
17935;SDS011;9093;52.062;4.508;2023-04-02T17:48:38;1.33;;;0.80;;
17935;SDS011;9093;52.062;4.508;2023-04-02T17:51:23;4.10;;;1.10;;
17935;SDS011;9093;52.062;4.508;2023-04-02T18:00:22;1.90;;;0.90;;
17935;SDS011;9093;52.062;4.508;2023-04-02T18:09:19;7.57;;;1.55;;
17935;SDS011;9093;52.062;4.508;2023-04-02T18:12:31;2.08;;;0.88;;
17935;SDS011;9093;52.062;4.508;2023-04-02T18:22:15;1.67;;;0.60;;
17935;SDS011;9093;52.062;4.508;2023-04-02T18:28:47;2.05;;;1.15;;
17935;SDS011;9093;52.062;4.508;2023-04-02T18:50:09;2.38;;;0.90;;
17935;SDS011;9093;52.062;4.508;2023-04-02T18:52:57;1.73;;;1.23;;
17935;SDS011;9093;52.062;4.508;2023-04-02T18:55:41;4.28;;;1.08;;
17935;SDS011;9093;52.062;4.508;2023-04-02T18:58:28;4.65;;;1.25;;
17935;SDS011;9093;52.062;4.508;2023-04-02T19:01:27;3.20;;;1.07;;
17935;SDS011;9093;52.062;4.508;2023-04-02T19:04:21;2.30;;;1.02;;
17935;SDS011;9093;52.062;4.508;2023-04-02T19:07:13;1.30;;;1.13;;
17935;SDS011;9093;52.062;4.508;2023-04-02T19:09:57;3.47;;;0.95;;
17935;SDS011;9093;52.062;4.508;2023-04-02T19:12:46;5.18;;;1.33;;
17935;SDS011;9093;52.062;4.508;2023-04-02T19:27:58;4.47;;;1.40;;
17935;SDS011;9093;52.062;4.508;2023-04-02T19:30:51;4.95;;;1.23;;
17935;SDS011;9093;52.062;4.508;2023-04-02T19:33:51;2.30;;;0.90;;
17935;SDS011;9093;52.062;4.508;2023-04-02T19:39:30;5.72;;;1.27;;
17935;SDS011;9093;52.062;4.508;2023-04-02T19:42:32;2.88;;;1.27;;
17935;SDS011;9093;52.062;4.508;2023-04-02T19:48:21;2.30;;;1.10;;
17935;SDS011;9093;52.062;4.508;2023-04-02T19:51:05;2.10;;;1.10;;
17935;SDS011;9093;52.062;4.508;2023-04-02T19:53:45;5.50;;;1.38;;
17935;SDS011;9093;52.062;4.508;2023-04-02T19:56:26;2.35;;;1.27;;
17935;SDS011;9093;52.062;4.508;2023-04-02T19:59:07;3.80;;;1.20;;
17935;SDS011;9093;52.062;4.508;2023-04-02T20:01:48;2.25;;;1.17;;
17935;SDS011;9093;52.062;4.508;2023-04-02T20:04:28;1.92;;;1.17;;
17935;SDS011;9093;52.062;4.508;2023-04-02T20:07:08;1.30;;;0.93;;
17935;SDS011;9093;52.062;4.508;2023-04-02T20:09:49;2.63;;;1.10;;
17935;SDS011;9093;52.062;4.508;2023-04-02T20:12:29;3.83;;;1.38;;
17935;SDS011;9093;52.062;4.508;2023-04-02T20:15:10;5.38;;;1.27;;
17935;SDS011;9093;52.062;4.508;2023-04-02T20:17:50;2.85;;;1.35;;
17935;SDS011;9093;52.062;4.508;2023-04-02T20:20:31;3.55;;;1.55;;
17935;SDS011;9093;52.062;4.508;2023-04-02T20:23:11;2.13;;;1.10;;
17935;SDS011;9093;52.062;4.508;2023-04-02T20:25:54;3.90;;;1.50;;
17935;SDS011;9093;52.062;4.508;2023-04-02T20:28:35;3.83;;;1.15;;
17935;SDS011;9093;52.062;4.508;2023-04-02T20:31:16;8.18;;;1.27;;
17935;SDS011;9093;52.062;4.508;2023-04-02T20:33:57;1.08;;;0.85;;
17935;SDS011;9093;52.062;4.508;2023-04-02T20:36:38;2.63;;;1.13;;
17935;SDS011;9093;52.062;4.508;2023-04-02T20:39:18;5.97;;;1.35;;
17935;SDS011;9093;52.062;4.508;2023-04-02T20:42:00;13.68;;;1.20;;
17935;SDS011;9093;52.062;4.508;2023-04-02T20:44:48;1.80;;;1.00;;
17935;SDS011;9093;52.062;4.508;2023-04-02T20:47:28;1.90;;;1.08;;
17935;SDS011;9093;52.062;4.508;2023-04-02T20:50:08;1.63;;;0.98;;
17935;SDS011;9093;52.062;4.508;2023-04-02T20:52:49;1.55;;;1.08;;
17935;SDS011;9093;52.062;4.508;2023-04-02T20:55:30;2.55;;;1.05;;
17935;SDS011;9093;52.062;4.508;2023-04-02T20:58:11;1.73;;;1.23;;
17935;SDS011;9093;52.062;4.508;2023-04-02T21:03:34;1.50;;;0.90;;
17935;SDS011;9093;52.062;4.508;2023-04-02T21:06:15;7.05;;;1.10;;
17935;SDS011;9093;52.062;4.508;2023-04-02T21:11:37;1.93;;;0.90;;
17935;SDS011;9093;52.062;4.508;2023-04-02T21:14:18;4.30;;;1.50;;
17935;SDS011;9093;52.062;4.508;2023-04-02T21:16:58;6.00;;;1.40;;
17935;SDS011;9093;52.062;4.508;2023-04-02T21:19:38;4.63;;;1.40;;
17935;SDS011;9093;52.062;4.508;2023-04-02T21:22:19;4.00;;;1.20;;
17935;SDS011;9093;52.062;4.508;2023-04-02T21:24:59;2.45;;;0.98;;
17935;SDS011;9093;52.062;4.508;2023-04-02T21:27:39;3.20;;;1.17;;
17935;SDS011;9093;52.062;4.508;2023-04-02T21:30:20;4.07;;;1.23;;
17935;SDS011;9093;52.062;4.508;2023-04-02T21:33:00;2.92;;;1.15;;
17935;SDS011;9093;52.062;4.508;2023-04-02T21:35:40;2.83;;;1.13;;
17935;SDS011;9093;52.062;4.508;2023-04-02T21:38:21;2.00;;;1.15;;
17935;SDS011;9093;52.062;4.508;2023-04-02T21:41:08;4.15;;;0.95;;
17935;SDS011;9093;52.062;4.508;2023-04-02T21:43:53;3.13;;;1.23;;
17935;SDS011;9093;52.062;4.508;2023-04-02T21:46:36;2.50;;;1.00;;
17935;SDS011;9093;52.062;4.508;2023-04-02T21:49:21;3.67;;;1.00;;